Time;durP1;ratioP1;P1;durP2;ratioP2;P2;SDS_P1;SDS_P2;PMS_P1;PMS_P2;Temp;Humidity;BMP_temperature;BMP_pressure;BME280_temperature;BME280_humidity;BME280_pressure;Samples;Min_cycle;Max_cycle;Signal;HPM_P1;HPM_P2
2021/05/31 00:00:29;;;;;;;7.80;6.80;;;15.00;99.90;;;;;;5038354;28;20435;-83
2021/05/31 00:02:55;;;;;;;8.47;6.53;;;14.90;99.90;;;;;;5019650;28;20508;-82
2021/05/31 00:05:25;;;;;;;6.80;6.20;;;15.00;99.90;;;;;;5017552;28;20432;-83
2021/05/31 00:07:53;;;;;;;7.33;6.60;;;14.90;99.90;;;;;;5038484;28;20431;-82
2021/05/31 00:10:21;;;;;;;7.17;6.47;;;14.80;99.90;;;;;;5003079;28;20548;-83
2021/05/31 00:12:50;;;;;;;7.00;6.50;;;14.80;99.90;;;;;;5017975;28;20438;-82
2021/05/31 00:15:21;;;;;;;6.90;6.40;;;14.70;99.90;;;;;;5017134;28;20451;-83
2021/05/31 00:17:52;;;;;;;7.40;6.80;;;14.60;99.90;;;;;;5017867;28;20556;-82
2021/05/31 00:20:22;;;;;;;7.10;6.30;;;14.60;99.90;;;;;;5022308;28;20529;-82
2021/05/31 00:22:50;;;;;;;6.80;6.33;;;14.50;99.90;;;;;;5021569;28;20454;-82
2021/05/31 00:25:22;;;;;;;7.57;6.77;;;14.50;99.90;;;;;;5023229;28;20557;-83
2021/05/31 00:27:51;;;;;;;7.30;6.67;;;14.50;99.90;;;;;;5037947;28;20429;-83
2021/05/31 00:30:21;;;;;;;7.80;6.60;;;14.50;99.90;;;;;;5022427;28;20458;-83
2021/05/31 00:32:50;;;;;;;7.50;6.80;;;14.40;99.90;;;;;;5026143;28;20899;-83
2021/05/31 00:35:20;;;;;;;6.90;6.30;;;14.30;99.90;;;;;;5056680;28;20436;-82
2021/05/31 00:37:49;;;;;;;7.10;6.40;;;14.30;99.90;;;;;;5024347;28;20462;-82
2021/05/31 00:40:18;;;;;;;7.73;7.03;;;14.20;99.90;;;;;;5005594;28;20422;-83
2021/05/31 00:42:44;;;;;;;7.47;6.77;;;14.10;99.90;;;;;;5020094;28;20933;-82
2021/05/31 00:45:16;;;;;;;7.37;6.67;;;14.10;99.90;;;;;;5021852;28;20483;-82
2021/05/31 00:47:44;;;;;;;7.30;6.60;;;14.00;99.90;;;;;;5024519;28;20438;-82
2021/05/31 00:50:14;;;;;;;7.03;6.00;;;13.90;99.90;;;;;;5028811;28;21044;-82
2021/05/31 00:52:40;;;;;;;6.50;6.00;;;13.90;99.90;;;;;;5020432;28;20763;-82
2021/05/31 00:55:07;;;;;;;6.73;6.13;;;13.90;99.90;;;;;;5022924;28;20858;-82
2021/05/31 00:57:35;;;;;;;7.37;6.70;;;13.80;99.90;;;;;;5037175;28;20969;-82
2021/05/31 01:00:07;;;;;;;7.53;6.73;;;13.80;99.90;;;;;;5037399;28;20449;-83
2021/05/31 01:02:37;;;;;;;7.43;6.80;;;13.80;99.90;;;;;;5020941;28;20434;-83
2021/05/31 01:05:07;;;;;;;7.40;6.80;;;13.70;99.90;;;;;;5021160;28;20927;-82
2021/05/31 01:07:39;;;;;;;6.87;6.33;;;13.80;99.90;;;;;;5025980;28;20437;-83
2021/05/31 01:10:20;;;;;;;7.60;6.90;;;13.70;99.90;;;;;;5048436;28;20438;-83
2021/05/31 01:13:09;;;;;;;9.27;7.17;;;13.80;99.90;;;;;;5017338;28;20522;-82
2021/05/31 01:15:46;;;;;;;7.40;6.70;;;13.70;99.90;;;;;;5039813;28;20434;-82
2021/05/31 01:18:23;;;;;;;7.70;6.63;;;13.70;99.90;;;;;;5035670;28;20481;-82
2021/05/31 01:21:01;;;;;;;6.30;5.70;;;13.60;99.90;;;;;;5019968;28;20432;-82
2021/05/31 01:23:31;;;;;;;7.30;6.23;;;13.60;99.90;;;;;;5020894;28;20899;-83
2021/05/31 01:26:15;;;;;;;6.47;5.87;;;13.60;99.90;;;;;;5020410;28;20424;-83
2021/05/31 01:29:04;;;;;;;8.63;6.60;;;13.60;99.90;;;;;;5020243;28;20422;-83
2021/05/31 01:31:41;;;;;;;6.50;6.00;;;13.60;99.90;;;;;;5037958;28;20429;-83
2021/05/31 01:34:13;;;;;;;7.00;6.40;;;13.60;99.90;;;;;;5023689;28;20467;-83
2021/05/31 01:36:52;;;;;;;8.90;7.50;;;13.50;99.90;;;;;;5020328;28;20554;-83
2021/05/31 01:39:25;;;;;;;8.10;6.03;;;13.40;99.90;;;;;;5036777;28;20497;-82
2021/05/31 01:41:52;;;;;;;7.00;6.40;;;13.40;99.90;;;;;;5043165;28;20442;-83
2021/05/31 01:44:19;;;;;;;7.47;6.20;;;13.40;99.90;;;;;;5039683;28;20436;-83
2021/05/31 01:46:47;;;;;;;6.90;6.30;;;13.40;99.90;;;;;;5025821;28;20436;-83
2021/05/31 01:49:19;;;;;;;7.33;6.50;;;13.30;99.90;;;;;;5011696;28;20436;-83
2021/05/31 01:51:46;;;;;;;8.47;6.77;;;13.30;99.90;;;;;;5026099;28;20465;-83
2021/05/31 01:54:16;;;;;;;6.40;5.80;;;13.20;99.90;;;;;;5031554;28;20437;-83
2021/05/31 01:56:47;;;;;;;8.33;6.77;;;13.20;99.90;;;;;;5039429;28;20482;-83
2021/05/31 01:59:14;;;;;;;6.30;5.50;;;13.10;99.90;;;;;;5022123;28;20877;-83
2021/05/31 02:01:43;;;;;;;6.13;5.43;;;13.10;99.90;;;;;;5019912;28;20775;-83
2021/05/31 02:04:09;;;;;;;6.60;6.00;;;13.00;99.90;;;;;;5036139;28;20439;-82
2021/05/31 02:06:35;;;;;;;6.93;6.33;;;12.90;99.90;;;;;;5023858;28;20438;-82
2021/05/31 02:09:01;;;;;;;6.30;5.80;;;12.90;99.90;;;;;;5036165;28;20942;-83
2021/05/31 02:11:44;;;;;;;9.07;7.10;;;12.90;99.90;;;;;;5025536;28;20434;-83
2021/05/31 02:14:23;;;;;;;7.33;6.60;;;12.90;99.90;;;;;;5028946;28;20491;-83
2021/05/31 02:17:04;;;;;;;6.33;5.73;;;12.90;99.90;;;;;;5037597;28;20801;-82
2021/05/31 02:19:34;;;;;;;7.23;6.63;;;12.80;99.90;;;;;;5024624;28;20462;-83
2021/05/31 02:22:02;;;;;;;6.53;6.00;;;12.70;99.90;;;;;;5056874;28;20930;-83
2021/05/31 02:24:31;;;;;;;6.70;6.10;;;12.60;99.90;;;;;;5023548;28;20430;-83
2021/05/31 02:27:02;;;;;;;7.13;6.43;;;12.60;99.90;;;;;;5039953;28;20895;-83
2021/05/31 02:29:29;;;;;;;6.90;6.20;;;12.60;99.90;;;;;;5023443;28;20475;-83
2021/05/31 02:31:55;;;;;;;6.63;6.03;;;12.60;99.90;;;;;;5023138;28;20837;-82
2021/05/31 02:34:21;;;;;;;7.00;6.30;;;12.60;99.90;;;;;;5028534;28;20463;-83
2021/05/31 02:36:52;;;;;;;7.90;6.43;;;12.50;99.90;;;;;;5043175;28;20563;-83
2021/05/31 02:39:18;;;;;;;8.23;6.03;;;12.50;99.90;;;;;;5042423;28;20430;-83
2021/05/31 02:41:46;;;;;;;6.90;6.03;;;12.50;99.90;;;;;;5031819;28;20448;-83
2021/05/31 02:44:15;;;;;;;7.87;7.07;;;12.40;99.90;;;;;;5023549;28;20430;-83
2021/05/31 02:46:43;;;;;;;6.87;6.27;;;12.50;99.90;;;;;;5033293;28;20429;-83
2021/05/31 02:49:14;;;;;;;7.30;6.60;;;12.40;99.90;;;;;;5041953;28;20411;-83
2021/05/31 02:51:40;;;;;;;7.27;6.47;;;12.40;99.90;;;;;;5029459;28;20477;-83
2021/05/31 02:54:12;;;;;;;8.83;6.23;;;12.40;99.90;;;;;;5051608;28;20425;-83
2021/05/31 02:56:41;;;;;;;9.23;6.37;;;12.40;99.90;;;;;;5042660;28;20861;-83
2021/05/31 02:59:09;;;;;;;7.23;6.63;;;12.40;99.90;;;;;;5027375;28;20435;-83
2021/05/31 03:01:40;;;;;;;7.60;6.80;;;12.40;99.90;;;;;;5018881;28;20442;-83
2021/05/31 03:04:06;;;;;;;7.50;6.80;;;12.40;99.90;;;;;;5030771;28;20424;-83
2021/05/31 03:06:35;;;;;;;7.33;6.63;;;12.40;99.90;;;;;;5033470;28;20443;-82
2021/05/31 03:09:03;;;;;;;7.57;6.80;;;12.30;99.90;;;;;;5023392;28;20503;-83
2021/05/31 03:11:34;;;;;;;6.13;5.63;;;12.40;99.90;;;;;;5021845;28;20445;-82
2021/05/31 03:14:00;;;;;;;11.03;7.07;;;12.30;99.90;;;;;;5046589;28;20432;-83
2021/05/31 03:16:29;;;;;;;8.80;7.20;;;12.30;99.90;;;;;;5043866;28;20513;-83
2021/05/31 03:18:55;;;;;;;9.07;6.73;;;12.30;99.90;;;;;;5044916;28;20450;-83
2021/05/31 03:21:20;;;;;;;9.73;6.70;;;12.20;99.90;;;;;;5043334;28;20416;-82
2021/05/31 03:23:51;;;;;;;9.73;7.40;;;12.30;99.90;;;;;;5028408;28;20830;-82
2021/05/31 03:26:20;;;;;;;8.73;7.07;;;12.20;99.90;;;;;;5023219;28;20490;-83
2021/05/31 03:28:48;;;;;;;8.00;7.20;;;12.20;99.90;;;;;;5023136;28;20444;-82
2021/05/31 03:31:14;;;;;;;7.80;7.00;;;12.20;99.90;;;;;;5044393;28;20467;-82
2021/05/31 03:33:40;;;;;;;8.93;6.93;;;12.20;99.90;;;;;;5042342;28;20437;-83
2021/05/31 03:36:08;;;;;;;8.03;7.10;;;12.20;99.90;;;;;;5006725;28;20443;-83
2021/05/31 03:38:35;;;;;;;8.63;7.83;;;12.20;99.90;;;;;;5026580;28;20431;-83
2021/05/31 03:41:03;;;;;;;10.27;7.10;;;12.20;99.90;;;;;;5013955;28;20493;-80
2021/05/31 03:43:29;;;;;;;8.77;7.40;;;12.20;99.90;;;;;;5026955;28;20442;-80
2021/05/31 03:45:57;;;;;;;10.57;8.30;;;12.10;99.90;;;;;;5019733;28;20890;-80
2021/05/31 03:48:23;;;;;;;8.27;7.53;;;12.20;99.90;;;;;;5044536;28;20462;-80
2021/05/31 03:50:49;;;;;;;7.10;6.27;;;12.10;99.90;;;;;;5007193;28;20449;-80
2021/05/31 03:53:17;;;;;;;7.70;6.90;;;12.20;99.90;;;;;;5055749;28;20433;-80
2021/05/31 03:55:48;;;;;;;7.70;6.03;;;12.20;99.90;;;;;;5051061;28;20920;-80
2021/05/31 03:58:16;;;;;;;7.50;6.63;;;12.20;99.90;;;;;;5035874;28;20474;-80
2021/05/31 04:00:49;;;;;;;13.10;6.60;;;12.20;99.90;;;;;;5019110;28;20489;-80
2021/05/31 04:03:17;;;;;;;7.87;7.17;;;12.20;99.90;;;;;;5052368;28;20474;-80
2021/05/31 04:05:59;;;;;;;8.43;7.20;;;12.20;99.90;;;;;;5055162;28;20445;-79
2021/05/31 04:14:05;;;;;;;9.10;8.20;;;12.20;99.90;;;;;;5033747;28;20893;-80
2021/05/31 04:16:31;;;;;;;7.73;7.13;;;12.20;99.90;;;;;;5043700;28;20453;-80
2021/05/31 04:18:57;;;;;;;8.50;7.17;;;12.20;99.90;;;;;;5018052;28;20609;-80
2021/05/31 04:21:26;;;;;;;9.37;7.57;;;12.30;99.90;;;;;;5051432;28;20427;-80
2021/05/31 04:23:54;;;;;;;8.73;7.50;;;12.30;99.90;;;;;;5037551;28;20420;-80
2021/05/31 04:26:23;;;;;;;7.73;7.03;;;12.30;99.90;;;;;;5037768;28;20420;-80
2021/05/31 04:28:51;;;;;;;8.67;7.77;;;12.30;99.90;;;;;;5037276;28;20443;-80
2021/05/31 04:31:18;;;;;;;7.70;7.10;;;12.40;99.90;;;;;;5023434;28;20465;-80
2021/05/31 04:33:44;;;;;;;8.97;7.13;;;12.40;99.90;;;;;;5040864;28;20516;-80
2021/05/31 04:36:10;;;;;;;7.87;7.17;;;12.60;99.90;;;;;;5028582;28;20447;-80
2021/05/31 04:38:38;;;;;;;11.57;7.70;;;12.50;99.90;;;;;;5038053;28;20483;-80
2021/05/31 04:41:05;;;;;;;7.70;6.63;;;12.60;99.90;;;;;;5054488;28;20437;-80
2021/05/31 04:43:31;;;;;;;10.90;7.60;;;12.70;99.90;;;;;;5043955;28;20441;-80
2021/05/31 04:46:03;;;;;;;8.60;7.10;;;12.80;99.90;;;;;;5055348;28;20499;-79
2021/05/31 04:48:30;;;;;;;8.37;7.57;;;12.90;99.90;;;;;;5054950;28;20948;-80
2021/05/31 04:50:57;;;;;;;9.23;6.93;;;12.90;99.90;;;;;;5019149;28;20470;-80
2021/05/31 04:53:27;;;;;;;7.20;6.47;;;12.90;99.90;;;;;;5036854;28;20426;-80
2021/05/31 04:55:54;;;;;;;11.30;7.60;;;13.00;99.90;;;;;;5021169;28;20564;-79
2021/05/31 04:58:25;;;;;;;8.77;7.87;;;13.10;99.90;;;;;;5053101;28;20520;-79
2021/05/31 05:00:54;;;;;;;9.13;7.43;;;13.10;99.90;;;;;;5034963;28;20443;-79
2021/05/31 05:03:20;;;;;;;13.10;7.43;;;13.20;99.90;;;;;;5017265;28;20771;-79
2021/05/31 05:05:51;;;;;;;8.60;7.30;;;13.20;99.90;;;;;;5049001;28;20921;-79
2021/05/31 05:08:19;;;;;;;10.10;8.23;;;13.40;99.90;;;;;;5054471;28;20440;-79
2021/05/31 05:10:47;;;;;;;9.90;7.57;;;13.40;99.90;;;;;;5054548;28;20437;-79
2021/05/31 05:13:15;;;;;;;8.60;7.80;;;13.60;99.90;;;;;;5036432;28;20926;-80
2021/05/31 05:15:41;;;;;;;9.80;8.17;;;13.60;99.90;;;;;;5053066;28;20438;-79
2021/05/31 05:18:07;;;;;;;10.00;8.63;;;13.70;99.90;;;;;;5054342;28;20550;-79
2021/05/31 05:20:34;;;;;;;10.73;7.67;;;13.80;99.90;;;;;;5024910;28;20437;-79
2021/05/31 05:23:02;;;;;;;9.43;8.30;;;13.80;99.90;;;;;;5033522;28;20433;-79
2021/05/31 05:25:31;;;;;;;9.30;8.40;;;13.90;99.90;;;;;;5034145;28;20432;-79
2021/05/31 05:27:59;;;;;;;18.37;9.87;;;14.00;99.90;;;;;;5014997;28;20415;-79
2021/05/31 05:30:29;;;;;;;12.50;9.30;;;14.00;99.90;;;;;;5049642;28;20469;-79
2021/05/31 05:33:02;;;;;;;10.40;9.30;;;14.20;99.90;;;;;;5052530;28;20445;-79
2021/05/31 05:48:22;;;;;;;11.73;10.03;;;14.60;99.90;;;;;;5034184;28;20489;-79
2021/05/31 05:51:05;;;;;;;9.70;8.70;;;14.60;99.90;;;;;;5030840;28;20484;-79
2021/05/31 05:53:43;;;;;;;10.10;9.00;;;14.70;99.90;;;;;;5035729;28;20480;-79
2021/05/31 05:56:11;;;;;;;9.40;8.43;;;14.80;99.90;;;;;;5032680;28;20456;-79
2021/05/31 05:58:40;;;;;;;10.20;9.20;;;15.00;99.90;;;;;;5037158;28;20444;-79
2021/05/31 06:01:09;;;;;;;9.10;8.20;;;15.00;99.90;;;;;;5053305;28;20419;-79
2021/05/31 06:03:35;;;;;;;9.13;8.33;;;15.20;99.90;;;;;;5053594;28;20430;-79
2021/05/31 06:06:04;;;;;;;11.50;9.20;;;15.30;99.90;;;;;;5051704;28;20429;-79
2021/05/31 06:08:31;;;;;;;11.53;9.40;;;15.40;99.90;;;;;;5039823;28;20470;-80
2021/05/31 06:11:00;;;;;;;10.77;9.03;;;15.60;99.90;;;;;;5053109;28;20422;-79
2021/05/31 06:13:28;;;;;;;10.20;9.30;;;15.60;99.90;;;;;;5054174;28;20422;-80
2021/05/31 06:15:54;;;;;;;10.70;9.60;;;15.70;99.90;;;;;;5039620;28;20761;-80
2021/05/31 06:18:21;;;;;;;13.00;9.00;;;15.90;99.90;;;;;;5032827;28;20466;-80
2021/05/31 06:20:50;;;;;;;13.17;10.37;;;16.00;99.90;;;;;;5029819;28;20428;-80
2021/05/31 06:23:18;;;;;;;10.47;9.37;;;16.10;99.90;;;;;;5042708;28;20451;-80
2021/05/31 06:25:47;;;;;;;10.13;8.77;;;16.30;99.90;;;;;;5042182;28;20850;-79
2021/05/31 06:28:19;;;;;;;9.47;8.67;;;16.40;99.90;;;;;;5033773;28;20506;-80
2021/05/31 06:30:45;;;;;;;10.37;9.27;;;16.50;99.90;;;;;;5050817;28;20549;-78
2021/05/31 06:33:16;;;;;;;11.53;9.17;;;16.70;99.90;;;;;;5053165;28;20450;-78
2021/05/31 06:35:46;;;;;;;10.67;9.27;;;16.70;99.90;;;;;;5035012;28;20431;-82
2021/05/31 06:38:15;;;;;;;10.37;8.63;;;16.70;99.90;;;;;;5033784;28;20512;-78
2021/05/31 06:40:43;;;;;;;9.43;8.20;;;16.80;99.90;;;;;;5049232;28;20549;-79
2021/05/31 06:43:09;;;;;;;10.03;8.67;;;16.90;99.90;;;;;;5033599;28;20478;-78
2021/05/31 06:45:38;;;;;;;9.50;8.70;;;17.00;99.90;;;;;;5042913;28;20522;-78
2021/05/31 06:48:12;;;;;;;8.90;8.10;;;17.00;99.90;;;;;;5042497;28;20456;-79
2021/05/31 06:50:40;;;;;;;9.90;8.90;;;17.10;99.90;;;;;;5043216;28;20495;-81
2021/05/31 06:53:09;;;;;;;10.80;9.73;;;17.30;99.90;;;;;;5048874;28;20473;-78
2021/05/31 06:55:35;;;;;;;12.00;9.53;;;17.40;99.90;;;;;;5042154;28;20899;-78
2021/05/31 06:58:01;;;;;;;10.33;9.40;;;17.60;99.90;;;;;;5037424;28;20472;-81
2021/05/31 07:00:28;;;;;;;9.57;8.57;;;17.60;99.90;;;;;;5034932;28;20481;-81
2021/05/31 07:02:54;;;;;;;15.77;9.60;;;17.80;99.90;;;;;;5019638;28;20436;-81
2021/05/31 07:05:23;;;;;;;9.87;8.93;;;17.90;99.90;;;;;;5016967;28;20438;-80
2021/05/31 07:07:50;;;;;;;9.60;8.80;;;17.90;99.90;;;;;;5037719;28;20509;-79
2021/05/31 07:10:17;;;;;;;9.80;8.90;;;18.10;99.90;;;;;;5034467;28;20533;-82
2021/05/31 07:12:45;;;;;;;9.23;8.53;;;18.00;99.90;;;;;;5026072;28;20428;-80
2021/05/31 07:15:24;;;;;;;10.90;9.20;;;18.00;99.90;;;;;;5035251;28;20426;-85
2021/05/31 07:18:25;;;;;;;9.43;8.63;;;18.10;99.90;;;;;;5016626;28;20468;-80
2021/05/31 07:20:54;;;;;;;9.37;8.67;;;18.10;99.90;;;;;;5031072;28;20812;-82
2021/05/31 07:23:22;;;;;;;10.07;9.07;;;18.10;99.90;;;;;;5018857;28;20430;-81
2021/05/31 07:25:48;;;;;;;9.73;8.83;;;18.10;99.90;;;;;;5017796;28;20441;-79
2021/05/31 07:28:15;;;;;;;9.90;9.00;;;18.20;99.90;;;;;;5037135;28;20461;-80
2021/05/31 07:30:43;;;;;;;9.77;8.97;;;18.30;99.90;;;;;;5055724;28;20812;-80
2021/05/31 07:33:11;;;;;;;9.83;8.83;;;18.30;99.90;;;;;;5054941;28;20496;-81
2021/05/31 07:35:38;;;;;;;11.00;8.80;;;18.50;99.90;;;;;;5055367;28;20919;-83
2021/05/31 07:38:04;;;;;;;9.60;8.90;;;18.60;99.80;;;;;;5052881;28;20479;-84
2021/05/31 07:40:33;;;;;;;10.27;9.20;;;18.70;98.40;;;;;;5055596;28;20902;-83
2021/05/31 07:43:02;;;;;;;10.03;9.23;;;18.80;98.70;;;;;;5069004;28;20519;-83
2021/05/31 07:45:28;;;;;;;9.97;8.70;;;18.90;98.10;;;;;;5057220;28;20440;-82
2021/05/31 07:47:58;;;;;;;9.87;9.13;;;19.00;99.40;;;;;;5032441;28;20446;-84
2021/05/31 07:50:28;;;;;;;10.27;9.37;;;19.10;97.00;;;;;;5050606;28;20438;-83
2021/05/31 07:52:56;;;;;;;9.40;8.50;;;19.10;97.00;;;;;;5061971;28;20766;-83
2021/05/31 07:55:22;;;;;;;10.00;9.13;;;19.10;97.70;;;;;;5061247;28;20440;-83
2021/05/31 07:57:50;;;;;;;10.17;9.17;;;19.20;96.90;;;;;;5029265;28;20573;-82
2021/05/31 08:00:20;;;;;;;9.90;8.90;;;19.20;96.60;;;;;;5061561;28;20470;-83
2021/05/31 08:02:50;;;;;;;10.77;8.53;;;19.30;97.00;;;;;;5062923;28;20771;-82
2021/05/31 08:05:17;;;;;;;9.00;8.30;;;19.40;96.90;;;;;;5063078;28;20809;-83
2021/05/31 08:07:49;;;;;;;9.33;8.73;;;19.50;96.60;;;;;;5036631;28;20519;-82
2021/05/31 08:10:16;;;;;;;10.57;9.60;;;19.70;96.20;;;;;;5059356;28;20456;-80
2021/05/31 08:12:42;;;;;;;9.70;8.90;;;19.70;96.90;;;;;;5045758;28;20870;-81
2021/05/31 08:15:09;;;;;;;10.50;9.70;;;19.80;96.00;;;;;;5035999;28;20427;-82
2021/05/31 08:17:38;;;;;;;11.90;9.80;;;19.80;95.50;;;;;;5062094;28;20496;-81
2021/05/31 08:20:06;;;;;;;9.93;9.23;;;19.70;95.30;;;;;;5033479;28;20952;-81
2021/05/31 08:22:34;;;;;;;11.60;8.63;;;19.70;96.40;;;;;;5048756;28;20451;-80
2021/05/31 08:25:11;;;;;;;10.77;9.53;;;19.80;95.80;;;;;;5066006;28;20464;-81
2021/05/31 08:27:37;;;;;;;9.83;8.93;;;19.90;96.20;;;;;;5054724;28;21149;-80
2021/05/31 08:30:04;;;;;;;9.50;8.70;;;20.00;95.10;;;;;;5048607;28;20462;-80
2021/05/31 08:32:30;;;;;;;9.70;8.80;;;20.00;95.40;;;;;;5026631;28;20452;-79
2021/05/31 08:34:57;;;;;;;9.57;8.57;;;20.10;95.10;;;;;;5035007;28;20418;-79
2021/05/31 08:37:23;;;;;;;9.77;8.77;;;20.20;95.50;;;;;;5038005;28;20480;-80
2021/05/31 08:39:53;;;;;;;9.90;9.07;;;20.10;95.60;;;;;;5032777;28;20501;-83
2021/05/31 08:42:22;;;;;;;10.10;9.17;;;20.30;95.60;;;;;;5040528;28;20438;-83
2021/05/31 08:44:48;;;;;;;9.80;8.87;;;20.40;94.90;;;;;;5038416;28;20470;-79
2021/05/31 08:47:20;;;;;;;8.60;7.90;;;20.40;94.60;;;;;;5036756;28;20447;-79
2021/05/31 08:49:47;;;;;;;9.57;8.67;;;20.50;94.20;;;;;;5035243;28;20530;-80
2021/05/31 08:52:13;;;;;;;9.60;8.83;;;20.70;95.30;;;;;;5032906;28;20578;-78
2021/05/31 08:54:39;;;;;;;9.20;8.50;;;20.80;95.50;;;;;;5041691;28;20438;-79
2021/05/31 08:57:07;;;;;;;9.70;8.97;;;20.80;92.40;;;;;;5031370;28;20557;-79
2021/05/31 08:59:35;;;;;;;9.50;8.70;;;20.90;92.00;;;;;;5034918;28;20477;-79
2021/05/31 09:03:09;;;;;;;9.13;8.33;;;20.90;93.10;;;;;;5034177;28;20441;-78
2021/05/31 09:27:31;;;;;;;9.20;8.60;;;22.90;88.70;;;;;;5025438;28;20556;-82
2021/05/31 09:30:05;;;;;;;9.40;8.60;;;23.20;85.60;;;;;;5037288;28;20532;-82
2021/05/31 09:32:32;;;;;;;9.40;8.70;;;23.20;81.50;;;;;;5033860;28;20894;-81
2021/05/31 09:35:00;;;;;;;9.50;8.50;;;23.40;77.90;;;;;;5067452;28;20444;-81
2021/05/31 09:37:27;;;;;;;9.27;8.57;;;23.70;78.50;;;;;;5058843;28;20431;-80
2021/05/31 09:40:03;;;;;;;9.93;9.30;;;23.90;75.20;;;;;;5068502;28;20425;-82
2021/05/31 09:42:32;;;;;;;10.60;9.70;;;24.10;74.50;;;;;;5048794;28;20973;-80
2021/05/31 09:45:06;;;;;;;9.93;9.30;;;24.50;70.90;;;;;;5067713;28;20488;-82
2021/05/31 09:47:37;;;;;;;9.03;8.33;;;24.80;70.10;;;;;;5054130;28;20528;-83
2021/05/31 09:50:08;;;;;;;10.33;9.60;;;25.00;70.80;;;;;;5047458;28;20446;-85
2021/05/31 09:52:37;;;;;;;9.57;8.77;;;25.30;68.60;;;;;;5067749;28;20429;-84
2021/05/31 09:55:13;;;;;;;10.67;9.63;;;25.40;67.10;;;;;;5054200;28;20421;-80
2021/05/31 09:57:39;;;;;;;10.47;9.57;;;25.50;66.80;;;;;;5034233;28;20448;-81
2021/05/31 10:00:15;;;;;;;10.60;9.83;;;25.70;67.10;;;;;;5050526;28;20427;-81
2021/05/31 10:07:51;;;;;;;10.40;9.57;;;25.50;63.00;;;;;;5042938;28;20463;-81
2021/05/31 10:10:17;;;;;;;10.40;9.60;;;25.00;63.00;;;;;;5049721;28;20444;-81
2021/05/31 10:12:49;;;;;;;9.53;8.73;;;24.80;66.20;;;;;;5046408;28;20437;-81
2021/05/31 10:15:19;;;;;;;10.07;9.10;;;24.90;65.90;;;;;;5040262;28;20439;-81
2021/05/31 10:18:01;;;;;;;10.77;9.80;;;25.10;65.10;;;;;;5035571;28;20452;-81
2021/05/31 10:20:29;;;;;;;10.40;9.40;;;25.20;65.40;;;;;;5051893;28;20421;-80
2021/05/31 10:22:58;;;;;;;9.90;9.20;;;25.20;62.80;;;;;;5053152;28;20541;-81
2021/05/31 10:25:27;;;;;;;11.03;10.23;;;25.30;62.40;;;;;;5044890;28;20438;-81
2021/05/31 10:27:59;;;;;;;10.07;9.47;;;25.30;61.50;;;;;;5057813;28;20474;-81
2021/05/31 10:30:27;;;;;;;10.43;9.63;;;24.90;60.70;;;;;;5046861;28;20504;-80
2021/05/31 10:32:58;;;;;;;10.47;9.57;;;24.40;63.70;;;;;;5053193;28;20434;-81
2021/05/31 10:35:29;;;;;;;10.10;9.40;;;24.30;66.80;;;;;;5052420;28;20437;-80
2021/05/31 10:37:58;;;;;;;10.53;9.73;;;24.60;63.60;;;;;;5057439;28;20760;-80
2021/05/31 10:40:36;;;;;;;11.20;10.30;;;24.80;63.10;;;;;;5050047;28;20450;-80
2021/05/31 10:43:07;;;;;;;9.77;9.17;;;25.10;59.40;;;;;;5044822;28;20561;-80
2021/05/31 10:45:34;;;;;;;11.20;10.30;;;25.50;58.90;;;;;;5018970;28;20434;-82
2021/05/31 10:48:08;;;;;;;10.80;9.80;;;25.80;61.10;;;;;;5045312;28;20461;-81
2021/05/31 10:50:41;;;;;;;10.90;10.03;;;26.10;60.80;;;;;;5038359;28;20464;-81
2021/05/31 10:53:32;;;;;;;11.47;10.77;;;26.20;59.70;;;;;;5055406;28;20962;-81
2021/05/31 10:56:01;;;;;;;11.57;10.70;;;26.00;58.00;;;;;;5048205;28;20765;-81
2021/05/31 10:58:45;;;;;;;10.83;9.77;;;25.70;58.40;;;;;;5056132;28;20444;-83
2021/05/31 11:01:33;;;;;;;11.77;11.03;;;25.60;58.80;;;;;;5038625;28;20436;-82
2021/05/31 11:04:02;;;;;;;12.20;10.60;;;25.70;59.30;;;;;;5056865;28;20486;-82
2021/05/31 11:06:38;;;;;;;10.70;9.97;;;25.90;59.30;;;;;;5056191;28;20431;-80
2021/05/31 11:09:34;;;;;;;11.00;10.20;;;25.80;57.10;;;;;;5055056;28;20789;-81
2021/05/31 11:12:52;;;;;;;11.17;10.37;;;25.60;59.80;;;;;;5046751;28;20474;-82
2021/05/31 11:15:20;;;;;;;13.17;11.90;;;26.20;59.90;;;;;;5052595;28;20414;-82
2021/05/31 11:18:22;;;;;;;12.33;11.50;;;26.40;59.00;;;;;;5051794;28;20461;-81
2021/05/31 11:20:48;;;;;;;11.80;10.97;;;26.70;54.70;;;;;;5060524;28;20445;-84
2021/05/31 11:23:19;;;;;;;11.63;10.60;;;26.70;55.10;;;;;;5055561;28;20434;-82
2021/05/31 11:25:48;;;;;;;11.67;10.87;;;26.70;55.20;;;;;;5057063;28;20435;-82
2021/05/31 11:28:14;;;;;;;11.50;10.50;;;26.20;55.00;;;;;;5055211;28;21139;-84
2021/05/31 11:30:47;;;;;;;11.90;10.97;;;25.70;55.70;;;;;;5050390;28;20910;-84
2021/05/31 11:33:17;;;;;;;11.40;10.57;;;25.60;57.60;;;;;;5064597;28;20445;-84
2021/05/31 11:35:47;;;;;;;11.50;10.70;;;25.90;56.30;;;;;;5067313;28;20905;-83
2021/05/31 11:38:19;;;;;;;12.50;11.37;;;25.90;55.50;;;;;;5037894;28;20437;-83
2021/05/31 11:40:45;;;;;;;12.13;11.37;;;26.10;55.90;;;;;;5038405;28;20451;-82
2021/05/31 11:43:14;;;;;;;11.60;10.80;;;26.10;54.60;;;;;;5050512;28;20463;-80
2021/05/31 11:45:45;;;;;;;12.00;11.00;;;26.10;55.00;;;;;;5063530;28;20460;-82
2021/05/31 11:48:17;;;;;;;11.37;10.50;;;26.80;54.20;;;;;;5064639;28;20495;-83
2021/05/31 11:50:48;;;;;;;10.73;10.03;;;27.10;53.00;;;;;;5070065;28;20447;-85
2021/05/31 11:53:17;;;;;;;11.33;10.27;;;27.30;54.10;;;;;;5037178;28;20498;-81
2021/05/31 11:55:43;;;;;;;11.90;10.90;;;27.60;54.50;;;;;;5039234;28;20449;-83
2021/05/31 11:58:11;;;;;;;10.50;9.80;;;27.80;51.50;;;;;;5060947;28;20435;-82
2021/05/31 12:00:42;;;;;;;10.80;10.00;;;28.00;51.70;;;;;;5069490;28;20451;-84
2021/05/31 12:03:25;;;;;;;11.00;10.23;;;28.30;52.80;;;;;;5061853;28;20521;-83
2021/05/31 12:05:51;;;;;;;11.37;10.57;;;28.40;51.40;;;;;;5068303;28;20743;-81
2021/05/31 12:08:17;;;;;;;11.17;10.27;;;28.40;51.00;;;;;;5037827;28;20464;-80
2021/05/31 12:10:47;;;;;;;12.37;11.37;;;28.20;49.40;;;;;;5052868;28;20438;-80
2021/05/31 12:13:15;;;;;;;10.97;10.17;;;28.00;49.30;;;;;;5042493;28;20488;-80
2021/05/31 12:15:41;;;;;;;12.40;11.40;;;27.80;50.80;;;;;;5072482;28;20452;-83
2021/05/31 12:18:12;;;;;;;11.63;10.73;;;27.30;52.20;;;;;;5040515;28;20443;-80
2021/05/31 12:20:40;;;;;;;11.87;10.87;;;27.00;51.60;;;;;;5060268;28;20837;-81
2021/05/31 12:23:16;;;;;;;10.90;10.10;;;26.90;52.20;;;;;;5058775;28;20436;-81
2021/05/31 12:25:42;;;;;;;11.13;10.33;;;27.00;50.60;;;;;;5040384;28;20433;-80
2021/05/31 12:28:08;;;;;;;11.33;10.50;;;27.50;50.90;;;;;;5036318;28;20958;-81
2021/05/31 12:30:36;;;;;;;11.00;10.20;;;27.90;49.70;;;;;;5015112;28;1087303;-79
2021/05/31 12:33:10;;;;;;;10.70;9.90;;;27.70;48.10;;;;;;5055627;28;20225;-81
2021/05/31 12:35:37;;;;;;;10.83;10.13;;;27.80;48.60;;;;;;5053219;28;20446;-80
2021/05/31 12:38:07;;;;;;;10.53;9.73;;;27.90;50.40;;;;;;5056896;28;20846;-83
2021/05/31 12:40:39;;;;;;;10.57;9.60;;;28.00;50.90;;;;;;5062021;28;20425;-83
2021/05/31 12:43:08;;;;;;;10.37;9.50;;;28.40;50.60;;;;;;5057899;28;20883;-84
2021/05/31 12:45:42;;;;;;;10.33;9.63;;;28.90;47.90;;;;;;5053213;28;20520;-81
2021/05/31 12:48:22;;;;;;;10.20;9.50;;;29.20;44.80;;;;;;5053817;28;20473;-84
2021/05/31 12:50:52;;;;;;;9.70;9.00;;;29.20;41.80;;;;;;5036236;28;20745;-81
2021/05/31 12:53:21;;;;;;;9.87;9.20;;;28.80;42.80;;;;;;5035740;28;20438;-81
2021/05/31 12:55:49;;;;;;;10.33;9.70;;;28.90;43.90;;;;;;5039223;28;20427;-80
2021/05/31 12:58:26;;;;;;;10.07;9.37;;;29.20;44.30;;;;;;5041137;28;20495;-80
2021/05/31 13:00:52;;;;;;;10.33;9.63;;;29.20;41.80;;;;;;5054406;28;20434;-80
2021/05/31 13:03:20;;;;;;;9.63;9.03;;;29.10;42.20;;;;;;5023683;28;20434;-80
2021/05/31 13:05:51;;;;;;;11.23;10.30;;;29.10;43.40;;;;;;5050076;28;20519;-81
2021/05/31 13:08:20;;;;;;;10.73;10.03;;;29.40;43.20;;;;;;5023932;28;20477;-81
2021/05/31 13:10:53;;;;;;;9.97;9.40;;;29.20;41.20;;;;;;5051195;28;20440;-83
2021/05/31 13:13:34;;;;;;;10.20;9.40;;;29.20;43.10;;;;;;5053371;28;20449;-82
2021/05/31 13:16:02;;;;;;;11.10;10.30;;;29.50;43.50;;;;;;5043653;28;20436;-82
2021/05/31 13:18:33;;;;;;;10.53;9.83;;;29.80;42.50;;;;;;5058703;28;20430;-81
2021/05/31 13:21:12;;;;;;;10.03;9.10;;;30.40;41.40;;;;;;5055568;28;20880;-82
2021/05/31 13:23:45;;;;;;;10.20;9.60;;;30.40;39.60;;;;;;5048311;28;20419;-79
2021/05/31 13:26:20;;;;;;;10.37;9.47;;;30.00;38.40;;;;;;5023456;28;20442;-81
2021/05/31 13:28:53;;;;;;;10.00;9.20;;;29.80;40.60;;;;;;5052309;28;20521;-82
2021/05/31 13:31:21;;;;;;;9.80;9.10;;;29.70;40.10;;;;;;5024649;28;20879;-82
2021/05/31 13:33:53;;;;;;;10.10;9.50;;;29.10;39.20;;;;;;5032919;28;20438;-84
2021/05/31 13:36:29;;;;;;;10.90;10.10;;;28.80;39.60;;;;;;5032690;28;20431;-82
2021/05/31 13:39:06;;;;;;;10.30;9.70;;;28.60;40.30;;;;;;5037513;28;20443;-81
2021/05/31 13:41:39;;;;;;;10.20;9.53;;;28.90;41.10;;;;;;5035109;28;20434;-86